Terminal Aerodrome Forecast
Issued by NWS Charleston, WV

Current Version | Previous Version | Graphics & Text | Print | Product List | Glossary Off
Versions: 1 2 3 4 5 6 7 8 9 10 11 12 13 14 15 16 17 18 19

938
FTUS41 KRLX 101739
TAFEKN
TAF
KEKN 101739Z 1018/1118 26010G20KT 3SM -SHSN SCT015 OVC020
      TEMPO 1018/1022 3/4SM -SHSN BKN008 OVC015
     FM110500 26010KT 5SM -SHSN OVC020
     FM111200 26005KT P6SM -SHSN OVC025
     FM111500 26007KT P6SM OVC030=

USA.gov is the U.S. government's official web portal to all federal, state and local government web resources and services.